KBNA

Nashville International Airport

Nashville, Tennessee, USA
KBNA 241729Z 2418/2518 17009KT 6SM -SHRA BR VCTS BKN020CB OVC070 TEMPO 2418/2422 2SM TSRA OVC015CB FM250000 15010KT 6SM -SHRA BR SCT025 OVC080 FM250600 17009KT P6SM VCSH OVC025
Issued Valid From Valid To
Sep-24 @ 17:29 UTC
(2 hours ago)
Sep-24 @ 18:00 UTC
(2 hours ago)
Sep-25 @ 18:00 UTC
(in 22 hours)
Sep-24 @ 18:00 to Sep-25 @ 00:00
KBNA 241729Z 2418/2518 17009KT 6SM -SHRA BR VCTS BKN020CB OVC070
Wind Visibility Clouds Conditions
170° at 9 knots 6 miles
  • Broken at 2,000' AGL
  • Overcast at 7,000' AGL
  • Light Rain
  • Mist
  • Area Thunderstorm
Temporary Sep-24 @ 18:00 to Sep-24 @ 22:00
TEMPO 2418/2422 2SM TSRA OVC015CB
Visibility Clouds Conditions
2 miles
  • Overcast at 1,500' AGL
  • Thunderstorm
  • Rain
From Sep-25 @ 00:00 to Sep-25 @ 06:00
FM250000 15010KT 6SM -SHRA BR SCT025 OVC080
Wind Visibility Clouds Conditions
150° at 10 knots 6 miles
  • Scattered at 2,500' AGL
  • Overcast at 8,000' AGL
  • Light Rain
  • Mist
From Sep-25 @ 06:00 to Sep-25 @ 18:00
FM250600 17009KT P6SM VCSH OVC025
Wind Visibility Clouds
170° at 9 knots Greater than 6 miles
  • Overcast at 2,500' AGL
KBNA 241729Z 2418/2518 17009KT 6SM -SHRA BR VCTS BKN020CB OVC070 TEMPO 2418/2422 2SM TSRA OVC015CB FM250000 15010KT 6SM -SHRA BR SCT025 OVC080 FM250600 17009KT P6SM VCSH OVC025
Issued Sep-24 @ 17:29 UTC
(2 hours ago)
Valid From Sep-24 @ 18:00 UTC
(2 hours ago)
Valid To Sep-25 @ 18:00 UTC
(in 22 hours)
Sep-24 @ 18:00 - Sep-25 @ 00:00
Wind Visibility
170° at 9 knots 6 miles
Clouds
  • Broken at 2,000' AGL
  • Overcast at 7,000' AGL
Conditions
  • Light Rain
  • Mist
  • Area Thunderstorm
Temporary Sep-24 @ 18:00 - Sep-24 @ 22:00
Clouds
  • Overcast at 1,500' AGL
Conditions
  • Thunderstorm
  • Rain
From Sep-25 @ 00:00 - Sep-25 @ 06:00
Wind Visibility
150° at 10 knots 6 miles
Clouds
  • Scattered at 2,500' AGL
  • Overcast at 8,000' AGL
Conditions
  • Light Rain
  • Mist
From Sep-25 @ 06:00 - Sep-25 @ 18:00
Wind Visibility
170° at 9 knots Greater than 6 miles
Clouds
  • Overcast at 2,500' AGL